createdAt,value
2022-11-25T00:00:14.377Z,7.40
2022-11-25T00:04:22.955Z,7.40
2022-11-25T00:12:40.886Z,7.40
2022-11-25T00:16:49.553Z,7.40
2022-11-25T00:20:59.186Z,7.50
2022-11-25T00:25:08.236Z,7.50
2022-11-25T00:29:16.922Z,7.50
2022-11-25T00:33:25.453Z,7.50
2022-11-25T00:37:34.079Z,7.50
2022-11-25T00:42:01.138Z,7.60
2022-11-25T00:46:10.774Z,7.60
2022-11-25T00:50:19.521Z,7.60
2022-11-25T00:54:28.047Z,7.70
2022-11-25T00:58:36.676Z,7.70
2022-11-25T01:03:04.659Z,7.70
2022-11-25T01:07:13.242Z,7.70
2022-11-25T01:11:23.825Z,7.80
2022-11-25T01:15:32.489Z,7.80
2022-11-25T01:19:42.040Z,7.90
2022-11-25T01:23:51.079Z,7.90
2022-11-25T01:27:59.605Z,7.90
2022-11-25T01:32:10.219Z,8.00
2022-11-25T01:36:19.465Z,8.00
2022-11-25T01:40:28.057Z,8.10
2022-11-25T01:44:39.119Z,8.10
2022-11-25T01:48:59.851Z,8.10
2022-11-25T01:53:09.968Z,8.20
2022-11-25T01:57:21.578Z,8.20
2022-11-25T02:01:30.298Z,8.20
2022-11-25T02:05:54.080Z,8.20
2022-11-25T02:10:05.548Z,8.20
2022-11-25T02:14:17.017Z,8.30
2022-11-25T02:18:27.234Z,8.30
2022-11-25T02:22:57.929Z,8.30
2022-11-25T02:27:06.658Z,8.30
2022-11-25T02:31:36.166Z,8.30
2022-11-25T02:35:53.613Z,8.30
2022-11-25T02:40:02.389Z,8.30
2022-11-25T02:44:11.278Z,8.30
2022-11-25T02:48:30.041Z,8.30
2022-11-25T02:52:31.098Z,8.30
2022-11-25T02:56:40.400Z,8.30
2022-11-25T03:00:50.446Z,8.30
2022-11-25T03:05:18.332Z,8.30
2022-11-25T03:09:27.013Z,8.30
2022-11-25T03:13:35.644Z,8.30
2022-11-25T03:17:44.169Z,8.30
2022-11-25T03:21:52.709Z,8.40
2022-11-25T03:26:02.977Z,8.40
2022-11-25T03:30:14.873Z,8.40
2022-11-25T03:34:23.598Z,8.40
2022-11-25T03:38:32.226Z,8.40
2022-11-25T03:42:41.266Z,8.50
2022-11-25T03:46:49.824Z,8.50
2022-11-25T03:50:58.424Z,8.50
2022-11-25T03:55:08.121Z,8.50
2022-11-25T03:59:16.673Z,8.50
2022-11-25T04:03:25.332Z,8.60
2022-11-25T04:07:34.020Z,8.50
2022-11-25T04:12:01.063Z,8.50
2022-11-25T04:16:18.903Z,8.50
2022-11-25T04:20:27.451Z,8.50
2022-11-25T04:24:37.044Z,8.50
2022-11-25T04:28:47.146Z,8.50
2022-11-25T04:32:56.800Z,8.50
2022-11-25T04:37:05.387Z,8.50
2022-11-25T04:41:14.014Z,8.50
2022-11-25T04:49:52.161Z,8.40
2022-11-25T04:54:00.792Z,8.40
2022-11-25T04:58:12.186Z,8.40
2022-11-25T05:02:23.923Z,8.40
2022-11-25T05:06:32.563Z,8.40
2022-11-25T05:10:41.122Z,8.40
2022-11-25T05:14:50.613Z,8.40
2022-11-25T05:18:59.223Z,8.40
2022-11-25T05:23:07.853Z,8.30
2022-11-25T05:27:17.941Z,8.30
2022-11-25T05:31:26.557Z,8.40
2022-11-25T05:35:35.168Z,8.40
2022-11-25T05:39:43.899Z,8.40
2022-11-25T05:43:52.834Z,8.40
2022-11-25T05:48:01.389Z,8.40
2022-11-25T05:52:09.989Z,8.40
2022-11-25T05:56:19.579Z,8.40
2022-11-25T06:00:29.294Z,8.50
2022-11-25T06:04:38.388Z,8.50
2022-11-25T06:08:47.621Z,8.50
2022-11-25T06:12:56.211Z,8.40
2022-11-25T06:17:05.476Z,8.40
2022-11-25T06:21:14.486Z,8.30
2022-11-25T06:25:23.114Z,8.30
2022-11-25T06:29:51.097Z,8.30
2022-11-25T06:33:59.623Z,8.30
2022-11-25T06:38:08.353Z,8.30
2022-11-25T06:42:16.880Z,8.30
2022-11-25T06:46:25.743Z,8.30
2022-11-25T06:50:34.549Z,8.30
2022-11-25T06:54:43.173Z,8.30
2022-11-25T06:59:12.081Z,8.30
2022-11-25T07:03:20.765Z,8.30
2022-11-25T07:07:29.410Z,8.20
2022-11-25T07:11:40.785Z,8.20
2022-11-25T07:15:49.692Z,8.10
2022-11-25T07:19:58.398Z,8.10
2022-11-25T07:24:10.953Z,8.00
2022-11-25T07:28:19.651Z,8.00
2022-11-25T07:32:28.385Z,7.90
2022-11-25T07:36:37.345Z,7.90
2022-11-25T07:40:46.048Z,7.90
2022-11-25T07:44:54.681Z,7.90
2022-11-25T07:49:05.989Z,7.90
2022-11-25T07:53:14.597Z,7.90
2022-11-25T07:57:23.271Z,7.90
2022-11-25T08:01:32.295Z,7.90
2022-11-25T08:05:41.098Z,7.80
2022-11-25T08:09:52.378Z,7.90
2022-11-25T08:14:01.222Z,7.80
2022-11-25T08:18:10.157Z,7.80
2022-11-25T08:22:18.727Z,7.80
2022-11-25T08:26:37.362Z,7.80
2022-11-25T08:30:46.065Z,7.80
2022-11-25T08:34:54.631Z,7.90
2022-11-25T08:39:22.471Z,8.00
2022-11-25T08:43:15.756Z,8.00
2022-11-25T08:47:25.019Z,8.10
2022-11-25T08:51:35.820Z,8.10
2022-11-25T08:55:44.619Z,8.10
2022-11-25T08:59:53.344Z,8.20
2022-11-25T09:04:02.906Z,8.20
2022-11-25T09:08:12.924Z,8.30
2022-11-25T09:12:21.662Z,8.30
2022-11-25T09:16:30.291Z,8.30
2022-11-25T09:20:40.946Z,8.40
2022-11-25T09:24:49.824Z,8.40
2022-11-25T09:28:59.986Z,8.40
2022-11-25T09:33:09.462Z,8.40
2022-11-25T09:37:18.063Z,8.50
2022-11-25T09:42:11.543Z,8.50
2022-11-25T09:46:46.329Z,8.60
2022-11-25T09:51:07.221Z,8.60
2022-11-25T09:55:22.804Z,8.60
2022-11-25T09:59:34.697Z,8.60
2022-11-25T10:03:52.657Z,8.70
2022-11-25T10:08:04.284Z,8.70
2022-11-25T10:12:15.943Z,8.70
2022-11-25T10:16:27.585Z,8.80
2022-11-25T10:20:39.860Z,8.90
2022-11-25T10:24:50.124Z,9.00
2022-11-25T10:29:07.467Z,9.00
2022-11-25T10:33:22.468Z,9.10
2022-11-25T10:37:34.546Z,9.20
2022-11-25T10:41:49.282Z,9.20
2022-11-25T10:46:09.580Z,9.30
2022-11-25T10:50:26.980Z,9.50
2022-11-25T10:54:35.569Z,9.50
2022-11-25T10:58:44.604Z,9.60
2022-11-25T11:02:54.360Z,9.70
2022-11-25T11:07:10.321Z,9.80
2022-11-25T11:11:21.878Z,9.80
2022-11-25T11:15:42.285Z,9.80
2022-11-25T11:20:11.999Z,9.80
2022-11-25T11:24:34.402Z,9.90
2022-11-25T11:28:43.353Z,10.00
2022-11-25T11:33:01.172Z,9.90
2022-11-25T11:37:33.241Z,10.00
2022-11-25T11:41:47.931Z,10.10
2022-11-25T11:46:05.737Z,10.10
2022-11-25T11:50:26.475Z,10.20
2022-11-25T11:54:38.633Z,10.20
2022-11-25T11:59:07.163Z,10.30
2022-11-25T12:03:24.705Z,10.30
2022-11-25T12:07:42.327Z,10.30
2022-11-25T12:12:12.686Z,10.30
2022-11-25T12:16:24.399Z,10.40
2022-11-25T12:20:41.709Z,10.40
2022-11-25T12:24:54.213Z,10.50
2022-11-25T12:29:05.851Z,10.60
2022-11-25T12:33:17.527Z,10.50
2022-11-25T12:37:34.317Z,10.60
2022-11-25T12:41:54.697Z,10.70
2022-11-25T12:46:15.624Z,10.80
2022-11-25T12:50:29.031Z,10.80
2022-11-25T12:54:43.683Z,10.80
2022-11-25T12:58:58.630Z,10.80
2022-11-25T13:03:29.096Z,10.80
2022-11-25T13:07:43.922Z,10.90
2022-11-25T13:12:13.819Z,10.90
2022-11-25T13:16:24.428Z,10.90
2022-11-25T13:20:36.882Z,10.90
2022-11-25T13:25:06.514Z,11.00
2022-11-25T13:29:37.823Z,11.00
2022-11-25T13:34:11.694Z,11.00
2022-11-25T13:38:38.299Z,11.10
2022-11-25T13:42:47.791Z,11.10
2022-11-25T13:46:58.627Z,11.10
2022-11-25T13:51:27.283Z,11.00
2022-11-25T13:55:42.454Z,11.00
2022-11-25T13:59:55.014Z,10.90
2022-11-25T14:04:27.663Z,11.00
2022-11-25T14:08:43.361Z,11.00
2022-11-25T14:13:14.043Z,10.90
2022-11-25T14:17:25.672Z,10.90
2022-11-25T14:21:40.231Z,10.90
2022-11-25T14:25:52.647Z,10.90
2022-11-25T14:30:07.144Z,10.90
2022-11-25T14:34:18.775Z,10.80
2022-11-25T14:38:46.692Z,10.90
2022-11-25T14:43:01.232Z,10.80
2022-11-25T14:47:09.828Z,10.80
2022-11-25T14:51:18.638Z,10.80
2022-11-25T14:55:32.451Z,10.70
2022-11-25T14:59:45.414Z,10.70
2022-11-25T15:03:55.004Z,10.70
2022-11-25T15:08:06.660Z,10.70
2022-11-25T15:12:19.382Z,10.70
2022-11-25T15:16:41.597Z,10.60
2022-11-25T15:20:53.372Z,10.60
2022-11-25T15:25:11.774Z,10.50
2022-11-25T15:29:21.073Z,10.50
2022-11-25T15:33:30.788Z,10.40
2022-11-25T15:37:39.341Z,10.40
2022-11-25T15:41:56.407Z,10.40
2022-11-25T15:46:07.027Z,10.30
2022-11-25T15:50:21.430Z,10.30
2022-11-25T15:54:33.020Z,10.30
2022-11-25T15:58:43.487Z,10.20
2022-11-25T16:02:54.637Z,10.20
2022-11-25T16:07:04.939Z,10.20
2022-11-25T16:11:17.908Z,10.20
2022-11-25T16:15:47.390Z,10.20
2022-11-25T16:19:55.920Z,10.20
2022-11-25T16:24:16.628Z,10.20
2022-11-25T16:28:25.618Z,10.10
2022-11-25T16:32:35.012Z,10.10
2022-11-25T16:36:44.129Z,10.00
2022-11-25T16:40:54.367Z,9.90
2022-11-25T16:45:02.908Z,9.90
2022-11-25T16:49:31.851Z,9.90
2022-11-25T16:53:40.503Z,9.80
2022-11-25T16:57:49.091Z,9.80
2022-11-25T17:01:58.587Z,9.80
2022-11-25T17:06:10.284Z,9.70
2022-11-25T17:10:19.889Z,9.70
2022-11-25T17:14:31.593Z,9.70
2022-11-25T17:18:40.567Z,9.60
2022-11-25T17:23:02.251Z,9.60
2022-11-25T17:27:15.230Z,9.60
2022-11-25T17:31:46.210Z,9.50
2022-11-25T17:36:14.107Z,9.50
2022-11-25T17:40:22.672Z,9.60
2022-11-25T17:44:31.439Z,9.60
2022-11-25T17:48:42.701Z,9.60
2022-11-25T17:52:51.896Z,9.70
2022-11-25T17:57:00.832Z,9.70
2022-11-25T18:01:10.323Z,9.80
2022-11-25T18:05:24.908Z,9.80
2022-11-25T18:09:33.521Z,9.70
2022-11-25T18:13:44.218Z,9.70
2022-11-25T18:17:55.845Z,9.70
2022-11-25T18:22:19.705Z,9.70
2022-11-25T18:26:28.306Z,9.70
2022-11-25T18:30:38.949Z,9.70
2022-11-25T18:34:48.124Z,9.70
2022-11-25T18:38:56.855Z,9.60
2022-11-25T18:43:26.475Z,9.60
2022-11-25T18:47:35.104Z,9.50
2022-11-25T18:51:44.676Z,9.50
2022-11-25T18:55:53.488Z,9.40
2022-11-25T19:00:31.216Z,9.30
2022-11-25T19:04:17.761Z,9.30
2022-11-25T19:08:26.333Z,9.20
2022-11-25T19:12:34.905Z,9.20
2022-11-25T19:16:56.247Z,9.20
2022-11-25T19:21:04.967Z,9.10
2022-11-25T19:25:14.369Z,9.00
2022-11-25T19:29:40.290Z,9.00
2022-11-25T19:33:47.931Z,8.90
2022-11-25T19:37:57.577Z,8.90
2022-11-25T19:42:06.394Z,8.90
2022-11-25T19:46:40.913Z,8.80
2022-11-25T19:50:41.283Z,8.80
2022-11-25T19:54:50.406Z,8.80
2022-11-25T19:58:58.916Z,8.70
2022-11-25T20:03:13.165Z,8.70
2022-11-25T20:07:22.482Z,8.60
2022-11-25T20:11:31.121Z,8.60
2022-11-25T20:15:42.718Z,8.50
2022-11-25T20:19:53.176Z,8.40
2022-11-25T20:24:04.164Z,8.40
2022-11-25T20:28:18.722Z,8.30
2022-11-25T20:32:30.215Z,8.30
2022-11-25T20:36:41.294Z,8.30
2022-11-25T20:40:52.660Z,8.30
2022-11-25T20:45:01.730Z,8.20
2022-11-25T20:49:19.389Z,8.20
2022-11-25T20:53:29.913Z,8.10
2022-11-25T20:57:38.543Z,8.10
2022-11-25T21:01:47.595Z,8.10
2022-11-25T21:05:58.068Z,8.10
2022-11-25T21:10:27.565Z,8.00
2022-11-25T21:14:36.500Z,8.00
2022-11-25T21:18:45.544Z,7.90
2022-11-25T21:22:58.056Z,7.90
2022-11-25T21:27:26.355Z,7.90
2022-11-25T21:31:35.021Z,7.80
2022-11-25T21:35:47.352Z,8.00
2022-11-25T21:39:57.053Z,7.90
2022-11-25T21:44:08.288Z,7.90
2022-11-25T21:48:25.904Z,7.80
2022-11-25T21:52:34.612Z,7.80
2022-11-25T21:56:43.273Z,7.80
2022-11-25T22:00:57.895Z,7.80
2022-11-25T22:05:30.605Z,7.80
2022-11-25T22:09:39.309Z,7.70
2022-11-25T22:13:49.419Z,7.70
2022-11-25T22:17:58.977Z,7.70
2022-11-25T22:22:13.411Z,7.60
2022-11-25T22:26:31.336Z,7.60
2022-11-25T22:30:39.988Z,7.60
2022-11-25T22:34:48.723Z,7.50
2022-11-25T22:39:18.237Z,7.50
2022-11-25T22:43:32.346Z,7.50
2022-11-25T22:47:45.150Z,7.40
2022-11-25T22:51:54.320Z,7.40
2022-11-25T22:56:02.999Z,7.50
2022-11-25T23:00:38.477Z,7.50
2022-11-25T23:04:50.225Z,7.50
2022-11-25T23:08:58.807Z,7.50
2022-11-25T23:13:07.384Z,7.50
2022-11-25T23:17:24.745Z,7.50
2022-11-25T23:21:33.575Z,7.50
2022-11-25T23:25:43.485Z,7.50
2022-11-25T23:29:52.061Z,7.50
2022-11-25T23:34:00.593Z,7.50
2022-11-25T23:38:12.287Z,7.40
2022-11-25T23:42:40.107Z,7.40
2022-11-25T23:46:49.414Z,7.40
2022-11-25T23:51:17.497Z,7.40
2022-11-25T23:55:29.507Z,7.40
2022-11-25T23:59:38.042Z,7.30
